createdAt,value
2023-05-21T00:01:48.871Z,57.27
2023-05-21T00:06:56.286Z,57.35
2023-05-21T00:12:03.478Z,57.50
2023-05-21T00:17:10.656Z,57.25
2023-05-21T00:22:18.051Z,57.46
2023-05-21T00:27:25.361Z,57.53
2023-05-21T00:32:32.595Z,57.29
2023-05-21T00:37:39.737Z,57.38
2023-05-21T00:42:48.355Z,57.38
2023-05-21T00:47:56.381Z,57.39
2023-05-21T00:53:03.637Z,57.53
2023-05-21T00:58:11.206Z,57.49
2023-05-21T01:03:19.501Z,57.46
2023-05-21T01:08:27.622Z,57.49
2023-05-21T01:13:35.845Z,57.58
2023-05-21T01:18:45.597Z,57.62
2023-05-21T01:23:53.166Z,57.42
2023-05-21T01:29:00.662Z,57.63
2023-05-21T01:34:09.950Z,57.58
2023-05-21T01:39:19.646Z,57.57
2023-05-21T01:44:28.096Z,57.49
2023-05-21T01:49:35.428Z,57.62
2023-05-21T01:54:42.788Z,57.50
2023-05-21T01:59:50.008Z,57.53
2023-05-21T02:04:57.316Z,57.75
2023-05-21T02:10:04.671Z,57.71
2023-05-21T02:15:11.957Z,57.83
2023-05-21T02:20:19.035Z,57.90
2023-05-21T02:25:26.121Z,57.88
2023-05-21T02:30:33.352Z,57.96
2023-05-21T02:35:40.563Z,57.74
2023-05-21T02:40:47.532Z,57.96
2023-05-21T02:45:55.056Z,58.22
2023-05-21T02:51:02.534Z,58.38
2023-05-21T02:56:10.000Z,57.93
2023-05-21T03:01:17.517Z,58.01
2023-05-21T03:06:24.719Z,58.00
2023-05-21T03:11:32.093Z,57.86
2023-05-21T03:16:42.131Z,57.91
2023-05-21T03:21:50.986Z,57.80
2023-05-21T03:26:59.556Z,57.71
2023-05-21T03:32:07.025Z,57.81
2023-05-21T03:37:14.325Z,57.89
2023-05-21T03:42:21.634Z,57.72
2023-05-21T03:47:28.853Z,57.90
2023-05-21T03:52:35.909Z,57.81
2023-05-21T03:57:43.379Z,57.78
2023-05-21T04:02:50.966Z,57.77
2023-05-21T04:07:59.190Z,57.81
2023-05-21T04:13:06.940Z,57.82
2023-05-21T04:18:15.909Z,57.76
2023-05-21T04:23:24.120Z,57.52
2023-05-21T04:28:31.528Z,57.82
2023-05-21T04:33:38.771Z,57.60
2023-05-21T04:38:46.229Z,57.64
2023-05-21T04:43:55.615Z,57.67
2023-05-21T04:49:04.214Z,57.89
2023-05-21T04:54:11.595Z,57.46
2023-05-21T04:59:19.014Z,57.51
2023-05-21T05:04:26.368Z,57.52
2023-05-21T05:09:34.030Z,57.49
2023-05-21T05:14:41.458Z,57.60
2023-05-21T05:19:48.797Z,57.59
2023-05-21T05:24:56.116Z,57.39
2023-05-21T05:30:03.412Z,57.52
2023-05-21T05:35:11.674Z,57.62
2023-05-21T05:40:19.077Z,57.68
2023-05-21T05:45:27.286Z,57.55
2023-05-21T05:50:34.825Z,57.56
2023-05-21T05:55:42.030Z,57.64
2023-05-21T06:00:49.406Z,57.72
2023-05-21T06:05:56.961Z,57.76
2023-05-21T06:11:04.964Z,57.70
2023-05-21T06:16:13.038Z,57.88
2023-05-21T06:21:20.362Z,57.90
2023-05-21T06:26:27.517Z,57.87
2023-05-21T06:31:34.727Z,57.92
2023-05-21T06:36:42.573Z,57.95
2023-05-21T06:41:49.947Z,58.00
2023-05-21T06:46:57.459Z,58.03
2023-05-21T06:52:04.970Z,58.02
2023-05-21T06:57:12.299Z,57.96
2023-05-21T07:02:19.683Z,57.87
2023-05-21T07:07:27.757Z,57.86
2023-05-21T07:12:34.748Z,57.74
2023-05-21T07:17:41.895Z,57.94
2023-05-21T07:22:49.486Z,58.03
2023-05-21T07:27:56.989Z,58.02
2023-05-21T07:33:04.196Z,57.83
2023-05-21T07:38:11.846Z,57.95
2023-05-21T07:43:19.253Z,57.97
2023-05-21T07:48:27.430Z,57.92
2023-05-21T07:53:34.608Z,57.94
2023-05-21T07:58:44.305Z,57.95
2023-05-21T08:03:51.971Z,57.80
2023-05-21T08:09:00.368Z,57.91
2023-05-21T08:14:07.879Z,57.83
2023-05-21T08:19:15.350Z,57.78
2023-05-21T08:24:23.107Z,57.71
2023-05-21T08:29:30.341Z,57.98
2023-05-21T08:34:37.713Z,57.74
2023-05-21T08:39:44.891Z,57.71
2023-05-21T08:44:54.691Z,57.62
2023-05-21T08:50:02.258Z,57.30
2023-05-21T08:55:10.740Z,57.35
2023-05-21T09:00:18.610Z,57.26
2023-05-21T09:05:26.076Z,57.23
2023-05-21T09:10:36.960Z,57.18
2023-05-21T09:15:44.467Z,57.17
2023-05-21T09:20:52.719Z,56.84
2023-05-21T09:26:00.485Z,56.78
2023-05-21T09:31:07.754Z,56.54
2023-05-21T09:36:15.179Z,56.93
2023-05-21T09:41:23.408Z,56.79
2023-05-21T09:46:39.653Z,56.82
2023-05-21T09:51:47.416Z,56.87
2023-05-21T09:56:55.115Z,56.80
2023-05-21T10:02:02.689Z,56.75
2023-05-21T10:07:10.096Z,56.75
2023-05-21T10:12:20.207Z,57.00
2023-05-21T10:17:28.669Z,56.85
2023-05-21T10:22:36.405Z,56.83
2023-05-21T10:27:43.642Z,56.81
2023-05-21T10:32:51.642Z,56.94
2023-05-21T10:37:59.357Z,57.04
2023-05-21T10:43:14.392Z,56.92
2023-05-21T10:48:34.138Z,57.04
2023-05-21T10:53:47.738Z,56.95
2023-05-21T10:59:11.269Z,57.05
2023-05-21T11:04:19.674Z,57.08
2023-05-21T11:09:26.861Z,56.97
2023-05-21T11:14:35.894Z,56.79
2023-05-21T11:19:43.860Z,56.76
2023-05-21T11:24:51.705Z,56.84
2023-05-21T11:29:59.590Z,56.94
2023-05-21T11:35:07.300Z,57.00
2023-05-21T11:40:21.412Z,56.77
2023-05-21T11:45:32.861Z,56.63
2023-05-21T11:50:42.615Z,56.86
2023-05-21T11:55:50.894Z,56.83
2023-05-21T12:00:57.860Z,56.62
2023-05-21T12:06:09.883Z,56.83
2023-05-21T12:11:16.942Z,56.83
2023-05-21T12:16:24.524Z,56.66
2023-05-21T12:21:32.269Z,56.68
2023-05-21T12:26:39.531Z,56.72
2023-05-21T12:31:53.156Z,56.66
2023-05-21T12:37:00.422Z,56.70
2023-05-21T12:42:08.042Z,56.61
2023-05-21T12:47:15.353Z,56.63
2023-05-21T12:52:22.761Z,56.64
2023-05-21T12:57:30.339Z,56.82
2023-05-21T13:02:40.921Z,56.64
2023-05-21T13:07:52.181Z,56.78
2023-05-21T13:13:00.440Z,55.86
2023-05-21T13:18:10.592Z,55.23
2023-05-21T13:23:19.128Z,54.89
2023-05-21T13:28:26.423Z,55.66
2023-05-21T13:33:33.855Z,54.96
2023-05-21T13:38:41.530Z,54.62
2023-05-21T13:43:49.107Z,53.65
2023-05-21T13:48:56.714Z,54.03
2023-05-21T13:54:04.175Z,53.72
2023-05-21T13:59:12.135Z,53.07
2023-05-21T14:04:19.704Z,54.74
2023-05-21T14:09:27.599Z,53.43
2023-05-21T14:14:35.154Z,53.75
2023-05-21T14:19:42.962Z,54.37
2023-05-21T14:24:50.418Z,54.93
2023-05-21T14:29:57.496Z,53.39
2023-05-21T14:35:05.017Z,54.31
2023-05-21T14:40:13.616Z,54.39
2023-05-21T14:45:21.100Z,52.10
2023-05-21T14:50:28.447Z,53.38
2023-05-21T14:55:37.260Z,54.55
2023-05-21T15:00:44.971Z,54.37
2023-05-21T15:05:52.556Z,54.36
2023-05-21T15:10:59.799Z,54.23
2023-05-21T15:16:07.576Z,54.41
2023-05-21T15:21:15.073Z,54.33
2023-05-21T15:26:23.170Z,54.27
2023-05-21T15:31:30.521Z,54.05
2023-05-21T15:36:38.311Z,53.84
2023-05-21T15:41:45.732Z,53.89
2023-05-21T15:46:54.338Z,53.74
2023-05-21T15:52:01.752Z,53.88
2023-05-21T15:57:09.161Z,53.90
2023-05-21T16:02:16.464Z,54.03
2023-05-21T16:07:24.923Z,54.02
2023-05-21T16:12:32.120Z,53.99
2023-05-21T16:17:39.439Z,54.38
2023-05-21T16:22:46.944Z,54.26
2023-05-21T16:27:53.980Z,54.30
2023-05-21T16:33:01.198Z,54.38
2023-05-21T16:38:08.631Z,54.30
2023-05-21T16:43:16.154Z,54.28
2023-05-21T16:48:23.324Z,54.61
2023-05-21T16:53:30.703Z,54.32
2023-05-21T16:58:38.091Z,54.31
2023-05-21T17:03:45.616Z,54.48
2023-05-21T17:08:52.970Z,54.39
2023-05-21T17:14:00.281Z,54.62
2023-05-21T17:19:07.601Z,54.40
2023-05-21T17:24:14.946Z,54.49
2023-05-21T17:29:22.124Z,54.76
2023-05-21T17:34:30.837Z,54.50
2023-05-21T17:39:38.302Z,54.62
2023-05-21T17:44:45.485Z,54.72
2023-05-21T17:49:52.727Z,54.56
2023-05-21T17:55:00.044Z,54.72
2023-05-21T18:00:08.933Z,54.87
2023-05-21T18:05:16.563Z,54.72
2023-05-21T18:10:24.353Z,54.92
2023-05-21T18:15:31.722Z,54.90
2023-05-21T18:20:39.539Z,54.74
2023-05-21T18:25:46.670Z,54.98
2023-05-21T18:30:55.527Z,54.86
2023-05-21T18:36:02.937Z,54.96
2023-05-21T18:41:10.584Z,55.02
2023-05-21T18:46:18.768Z,55.03
2023-05-21T18:51:26.747Z,54.93
2023-05-21T18:56:34.224Z,54.89
2023-05-21T19:01:42.031Z,55.15
2023-05-21T19:06:49.662Z,55.01
2023-05-21T19:11:56.863Z,54.97
2023-05-21T19:17:04.864Z,55.02
2023-05-21T19:22:12.382Z,55.18
2023-05-21T19:27:19.885Z,55.16
2023-05-21T19:32:27.260Z,55.24
2023-05-21T19:37:35.001Z,55.27
2023-05-21T19:42:44.383Z,55.25
2023-05-21T19:47:51.956Z,55.28
2023-05-21T19:52:59.894Z,55.15
2023-05-21T19:58:07.076Z,55.26
2023-05-21T20:03:15.325Z,55.14
2023-05-21T20:08:22.495Z,55.16
2023-05-21T20:13:30.109Z,55.18
2023-05-21T20:18:37.365Z,55.07
2023-05-21T20:23:44.680Z,55.11
2023-05-21T20:28:51.798Z,55.05
2023-05-21T20:33:59.320Z,55.04
2023-05-21T20:39:06.796Z,55.12
2023-05-21T20:44:14.211Z,55.05
2023-05-21T20:49:25.193Z,55.13
2023-05-21T20:54:32.907Z,55.18
2023-05-21T20:59:40.288Z,55.19
2023-05-21T21:04:49.498Z,55.15
2023-05-21T21:09:56.937Z,55.02
2023-05-21T21:15:04.271Z,55.04
2023-05-21T21:20:13.194Z,55.12
2023-05-21T21:25:20.657Z,55.12
2023-05-21T21:30:27.979Z,55.15
2023-05-21T21:35:35.152Z,55.19
2023-05-21T21:40:42.451Z,55.26
2023-05-21T21:45:49.846Z,55.12
2023-05-21T21:50:57.791Z,55.25
2023-05-21T21:56:05.370Z,55.19
2023-05-21T22:01:12.859Z,55.15
2023-05-21T22:06:20.382Z,55.04
2023-05-21T22:11:28.876Z,55.13
2023-05-21T22:16:36.904Z,55.14
2023-05-21T22:21:43.985Z,55.20
2023-05-21T22:26:51.225Z,55.30
2023-05-21T22:31:58.432Z,55.33
2023-05-21T22:37:05.824Z,55.16
2023-05-21T22:42:13.291Z,55.02
2023-05-21T22:47:23.458Z,55.23
2023-05-21T22:52:31.036Z,55.11
2023-05-21T22:57:38.237Z,55.24
2023-05-21T23:02:45.688Z,55.08
2023-05-21T23:07:52.766Z,55.08
2023-05-21T23:12:59.975Z,55.19
2023-05-21T23:18:08.049Z,55.06
2023-05-21T23:23:15.211Z,55.10
2023-05-21T23:28:22.394Z,55.23
2023-05-21T23:33:30.253Z,55.02
2023-05-21T23:38:37.792Z,55.01
2023-05-21T23:43:45.195Z,55.12
2023-05-21T23:48:52.202Z,55.05
2023-05-21T23:53:59.316Z,55.14
2023-05-21T23:59:06.745Z,54.91
